createdAt,value
2019-05-13T00:00:34.122Z,11.71
2019-05-13T00:11:37.465Z,11.53
2019-05-13T00:22:34.045Z,11.41
2019-05-13T00:33:36.782Z,11.23
2019-05-13T00:44:37.550Z,10.85
2019-05-13T00:55:34.613Z,10.84
2019-05-13T01:06:36.917Z,10.71
2019-05-13T01:17:36.350Z,10.28
2019-05-13T01:28:36.413Z,9.79
2019-05-13T01:39:36.532Z,9.56
2019-05-13T01:50:38.618Z,9.28
2019-05-13T02:01:38.088Z,9.28
2019-05-13T02:12:39.781Z,9.42
2019-05-13T02:23:38.787Z,9.65
2019-05-13T02:34:44.135Z,9.71
2019-05-13T02:45:44.480Z,9.98
2019-05-13T02:56:47.763Z,9.96
2019-05-13T03:07:53.115Z,9.97
2019-05-13T03:18:54.500Z,10.03
2019-05-13T03:29:56.836Z,9.98
2019-05-13T03:40:55.547Z,10.41
2019-05-13T03:51:57.202Z,10.46
2019-05-13T04:02:58.835Z,10.58
2019-05-13T04:13:55.558Z,10.66
2019-05-13T04:24:53.312Z,10.69
2019-05-13T04:35:53.244Z,10.78
2019-05-13T04:46:54.347Z,10.80
2019-05-13T04:57:53.483Z,10.49
2019-05-13T05:08:56.236Z,10.46
2019-05-13T05:19:54.634Z,10.75
2019-05-13T05:30:54.868Z,10.85
2019-05-13T05:41:53.672Z,10.84
2019-05-13T05:52:52.459Z,10.85
2019-05-13T06:03:55.783Z,10.91
2019-05-13T06:14:52.783Z,10.96
2019-05-13T06:25:54.709Z,10.95
2019-05-13T06:36:54.589Z,11.00
2019-05-13T06:47:46.825Z,11.13
2019-05-13T06:58:49.131Z,11.31
2019-05-13T07:09:47.325Z,11.50
2019-05-13T07:20:47.387Z,11.59
2019-05-13T07:31:45.707Z,11.21
2019-05-13T07:42:41.941Z,10.93
2019-05-13T07:53:42.565Z,10.98
2019-05-13T08:04:42.076Z,10.71
2019-05-13T08:15:42.249Z,10.55
2019-05-13T08:26:49.777Z,10.65
2019-05-13T08:37:47.437Z,10.73
2019-05-13T08:48:42.969Z,10.78
2019-05-13T08:59:46.355Z,10.69
2019-05-13T09:10:47.867Z,10.62
2019-05-13T09:21:44.911Z,10.59
2019-05-13T09:32:43.616Z,10.53
2019-05-13T09:43:42.017Z,10.36
2019-05-13T09:54:41.538Z,10.36
2019-05-13T10:05:45.789Z,10.51
2019-05-13T10:16:43.751Z,10.49
2019-05-13T10:27:41.841Z,10.33
2019-05-13T10:38:41.840Z,10.26
2019-05-13T10:49:42.567Z,10.25
2019-05-13T11:00:45.224Z,10.34
2019-05-13T11:11:45.742Z,10.51
2019-05-13T11:22:45.547Z,10.78
2019-05-13T11:33:51.979Z,11.21
2019-05-13T11:44:52.819Z,11.75
2019-05-13T11:55:48.298Z,11.86
2019-05-13T12:06:54.300Z,11.75
2019-05-13T12:17:43.804Z,11.84
2019-05-13T12:28:44.450Z,11.68
2019-05-13T12:39:44.130Z,11.65
2019-05-13T12:50:43.924Z,11.74
2019-05-13T13:01:42.927Z,11.79
2019-05-13T13:12:42.096Z,12.23
2019-05-13T13:23:42.575Z,11.94
2019-05-13T13:34:43.908Z,11.93
2019-05-13T13:46:06.587Z,11.78
2019-05-13T13:56:46.206Z,11.87
2019-05-13T14:07:43.876Z,11.81
2019-05-13T14:18:42.225Z,11.87
2019-05-13T14:29:49.229Z,12.00
2019-05-13T14:40:44.977Z,12.00
2019-05-13T14:51:55.878Z,12.09
2019-05-13T15:02:55.318Z,11.98
2019-05-13T15:13:44.818Z,11.78
2019-05-13T15:24:32.545Z,11.79
2019-05-13T15:35:23.492Z,11.87
2019-05-13T15:46:22.229Z,11.78
2019-05-13T15:57:15.047Z,11.89
2019-05-13T16:08:12.185Z,11.87
2019-05-13T16:19:05.241Z,11.67
2019-05-13T16:30:02.703Z,11.61
2019-05-13T16:40:59.541Z,11.61
2019-05-13T16:51:59.061Z,11.67
2019-05-13T17:02:57.165Z,11.75
2019-05-13T17:13:56.216Z,11.89
2019-05-13T17:24:58.771Z,11.84
2019-05-13T17:35:57.292Z,11.81
2019-05-13T17:46:56.217Z,11.75
2019-05-13T17:57:58.413Z,11.79
2019-05-13T18:08:57.362Z,11.72
2019-05-13T18:19:51.533Z,11.59
2019-05-13T18:30:53.929Z,11.46
2019-05-13T18:41:48.567Z,11.35
2019-05-13T18:52:45.253Z,11.28
2019-05-13T19:03:45.001Z,11.26
2019-05-13T19:14:41.039Z,11.17
2019-05-13T19:25:42.718Z,11.20
2019-05-13T19:36:44.166Z,11.08
2019-05-13T19:47:44.813Z,11.18
2019-05-13T19:58:43.529Z,11.41
2019-05-13T20:09:43.238Z,11.49
2019-05-13T20:20:43.408Z,11.49
2019-05-13T20:31:41.387Z,11.56
2019-05-13T20:42:41.540Z,11.47
2019-05-13T20:53:42.862Z,11.59
2019-05-13T21:04:40.261Z,11.54
2019-05-13T21:15:42.443Z,11.60
2019-05-13T21:26:45.571Z,11.71
2019-05-13T21:37:44.150Z,11.78
2019-05-13T21:48:44.677Z,11.67
2019-05-13T21:59:46.782Z,11.68
2019-05-13T22:10:52.445Z,11.67
2019-05-13T22:21:51.412Z,11.84
2019-05-13T22:32:52.244Z,11.71
2019-05-13T22:43:55.610Z,11.79
2019-05-13T22:54:48.077Z,11.71
2019-05-13T23:05:48.096Z,11.60
2019-05-13T23:16:47.787Z,11.57
2019-05-13T23:27:44.279Z,11.59
2019-05-13T23:38:46.076Z,11.54
2019-05-13T23:49:47.023Z,11.49
